createdAt,value
2023-04-19T00:01:41.289Z,88.51
2023-04-19T00:04:08.726Z,88.54
2023-04-19T00:06:35.488Z,88.58
2023-04-19T00:09:02.106Z,88.52
2023-04-19T00:11:28.790Z,88.75
2023-04-19T00:13:55.391Z,88.55
2023-04-19T00:16:21.999Z,88.51
2023-04-19T00:18:48.669Z,88.11
2023-04-19T00:21:15.391Z,87.41
2023-04-19T00:23:41.952Z,87.42
2023-04-19T00:26:08.548Z,87.18
2023-04-19T00:28:35.194Z,87.44
2023-04-19T00:31:01.941Z,87.41
2023-04-19T00:33:28.696Z,87.65
2023-04-19T00:35:57.188Z,87.84
2023-04-19T00:38:23.834Z,87.92
2023-04-19T00:40:50.561Z,87.68
2023-04-19T00:43:21.117Z,88.24
2023-04-19T00:45:49.430Z,87.75
2023-04-19T00:48:16.213Z,87.68
2023-04-19T00:50:44.786Z,87.22
2023-04-19T00:53:11.450Z,87.42
2023-04-19T00:55:39.611Z,86.98
2023-04-19T00:58:07.550Z,86.77
2023-04-19T01:00:35.394Z,86.21
2023-04-19T01:03:02.380Z,85.73
2023-04-19T01:05:29.162Z,86.04
2023-04-19T01:07:56.006Z,85.65
2023-04-19T01:10:22.646Z,86.37
2023-04-19T01:12:50.155Z,86.42
2023-04-19T01:15:16.856Z,86.29
2023-04-19T01:17:43.547Z,86.35
2023-04-19T01:20:10.666Z,86.76
2023-04-19T01:22:40.298Z,86.51
2023-04-19T01:25:07.745Z,86.79
2023-04-19T01:27:34.663Z,86.91
2023-04-19T01:30:01.281Z,86.55
2023-04-19T01:32:27.952Z,86.57
2023-04-19T01:34:56.066Z,86.38
2023-04-19T01:37:22.834Z,86.42
2023-04-19T01:39:49.528Z,86.32
2023-04-19T01:42:16.167Z,85.59
2023-04-19T01:44:42.777Z,86.02
2023-04-19T01:47:09.687Z,86.27
2023-04-19T01:49:36.437Z,86.42
2023-04-19T01:52:03.033Z,85.95
2023-04-19T01:54:29.687Z,86.28
2023-04-19T01:56:56.345Z,86.43
2023-04-19T01:59:22.977Z,86.38
2023-04-19T02:01:50.866Z,86.32
2023-04-19T02:04:20.727Z,86.40
2023-04-19T02:06:47.538Z,86.04
2023-04-19T02:09:14.487Z,86.52
2023-04-19T02:11:42.275Z,85.91
2023-04-19T02:14:08.940Z,86.57
2023-04-19T02:16:36.169Z,86.24
2023-04-19T02:19:03.468Z,86.60
2023-04-19T02:21:30.090Z,86.24
2023-04-19T02:23:56.692Z,86.00
2023-04-19T02:26:24.560Z,85.69
2023-04-19T02:28:52.594Z,86.04
2023-04-19T02:31:19.342Z,86.19
2023-04-19T02:33:46.778Z,86.21
2023-04-19T02:36:13.475Z,86.11
2023-04-19T02:38:40.086Z,86.14
2023-04-19T02:41:07.011Z,85.86
2023-04-19T02:43:33.625Z,85.80
2023-04-19T02:46:01.457Z,85.94
2023-04-19T02:48:28.113Z,86.13
2023-04-19T02:50:54.964Z,86.40
2023-04-19T02:53:22.177Z,86.60
2023-04-19T02:55:49.927Z,85.86
2023-04-19T02:58:19.081Z,85.45
2023-04-19T03:01:05.728Z,86.19
2023-04-19T03:03:32.603Z,86.53
2023-04-19T03:05:59.312Z,86.58
2023-04-19T03:08:26.965Z,86.18
2023-04-19T03:10:53.565Z,86.32
2023-04-19T03:13:20.164Z,85.86
2023-04-19T03:15:47.590Z,85.96
2023-04-19T03:18:17.943Z,86.05
2023-04-19T03:20:44.691Z,86.42
2023-04-19T03:23:11.312Z,86.36
2023-04-19T03:25:38.409Z,86.47
2023-04-19T03:28:28.164Z,86.35
2023-04-19T03:31:15.267Z,86.25
2023-04-19T03:33:42.032Z,86.45
2023-04-19T03:36:10.635Z,86.70
2023-04-19T03:38:38.661Z,87.37
2023-04-19T03:41:18.785Z,87.07
2023-04-19T03:43:45.831Z,86.54
2023-04-19T03:46:12.651Z,85.52
2023-04-19T03:48:39.256Z,85.87
2023-04-19T03:51:06.071Z,85.58
2023-04-19T03:53:33.035Z,85.64
2023-04-19T03:55:59.910Z,85.46
2023-04-19T03:58:26.743Z,85.33
2023-04-19T04:00:59.764Z,85.42
2023-04-19T04:03:26.889Z,85.29
2023-04-19T04:05:53.834Z,84.72
2023-04-19T04:08:20.610Z,84.81
2023-04-19T04:10:47.629Z,84.35
2023-04-19T04:13:15.049Z,84.02
2023-04-19T04:15:50.150Z,84.51
2023-04-19T04:18:17.453Z,83.56
2023-04-19T04:20:44.894Z,82.85
2023-04-19T04:23:12.558Z,82.14
2023-04-19T04:25:44.078Z,82.17
2023-04-19T04:28:13.523Z,82.75
2023-04-19T04:30:41.837Z,83.05
2023-04-19T04:33:11.959Z,83.41
2023-04-19T04:35:41.671Z,82.47
2023-04-19T04:38:23.530Z,81.43
2023-04-19T04:40:53.722Z,81.19
2023-04-19T04:43:26.108Z,80.87
2023-04-19T04:45:55.771Z,81.51
2023-04-19T04:48:23.617Z,81.25
2023-04-19T04:50:50.373Z,81.06
2023-04-19T04:53:17.826Z,79.68
2023-04-19T04:55:45.874Z,79.17
2023-04-19T04:58:13.718Z,79.99
2023-04-19T05:01:01.511Z,79.97
2023-04-19T05:03:29.900Z,79.73
2023-04-19T05:05:59.351Z,78.82
2023-04-19T05:08:26.960Z,78.42
2023-04-19T05:10:58.230Z,78.32
2023-04-19T05:13:27.884Z,76.74
2023-04-19T05:15:55.444Z,76.13
2023-04-19T05:18:24.168Z,76.47
2023-04-19T05:20:50.800Z,73.49
2023-04-19T05:23:21.645Z,74.31
2023-04-19T05:25:50.366Z,72.21
2023-04-19T05:28:17.222Z,71.47
2023-04-19T05:31:03.199Z,72.39
2023-04-19T05:33:34.439Z,71.32
2023-04-19T05:36:01.297Z,69.78
2023-04-19T05:38:28.499Z,69.89
2023-04-19T05:40:57.787Z,69.42
2023-04-19T05:43:24.397Z,67.88
2023-04-19T05:45:51.174Z,66.47
2023-04-19T05:48:18.891Z,64.47
2023-04-19T05:50:59.694Z,63.40
2023-04-19T05:53:49.392Z,64.54
2023-04-19T05:56:16.165Z,66.59
2023-04-19T05:58:42.757Z,66.75
2023-04-19T06:01:09.475Z,67.50
2023-04-19T06:03:36.235Z,67.84
2023-04-19T06:06:04.199Z,67.11
2023-04-19T06:08:31.594Z,65.81
2023-04-19T06:11:02.404Z,66.59
2023-04-19T06:13:38.514Z,66.01
2023-04-19T06:16:05.663Z,62.54
2023-04-19T06:18:32.732Z,62.63
2023-04-19T06:20:59.305Z,64.04
2023-04-19T06:23:26.965Z,64.18
2023-04-19T06:25:53.589Z,63.07
2023-04-19T06:28:20.220Z,63.75
2023-04-19T06:30:46.814Z,62.15
2023-04-19T06:33:13.380Z,60.32
2023-04-19T06:35:40.052Z,60.60
2023-04-19T06:38:07.806Z,62.39
2023-04-19T06:40:35.138Z,59.92
2023-04-19T06:43:01.721Z,61.51
2023-04-19T06:45:28.589Z,59.43
2023-04-19T06:47:55.178Z,59.21
2023-04-19T06:50:21.890Z,58.33
2023-04-19T06:52:48.566Z,58.04
2023-04-19T06:55:15.234Z,59.41
2023-04-19T06:57:42.782Z,58.23
2023-04-19T07:00:10.691Z,59.00
2023-04-19T07:02:37.498Z,59.78
2023-04-19T07:05:05.503Z,57.66
2023-04-19T07:07:33.431Z,61.12
2023-04-19T07:10:00.095Z,62.13
2023-04-19T07:12:26.823Z,60.59
2023-04-19T07:14:56.507Z,60.81
2023-04-19T07:17:23.690Z,62.27
2023-04-19T07:19:50.375Z,64.22
2023-04-19T07:22:16.971Z,61.67
2023-04-19T07:24:44.600Z,60.61
2023-04-19T07:27:12.103Z,60.40
2023-04-19T07:29:40.894Z,62.24
2023-04-19T07:32:07.504Z,60.32
2023-04-19T07:34:37.954Z,61.12
2023-04-19T07:37:04.546Z,57.91
2023-04-19T07:39:31.285Z,60.26
2023-04-19T07:41:58.094Z,60.82
2023-04-19T07:44:24.934Z,59.55
2023-04-19T07:46:51.560Z,60.00
2023-04-19T07:49:18.399Z,59.38
2023-04-19T07:51:45.020Z,61.84
2023-04-19T07:54:11.729Z,60.81
2023-04-19T07:56:38.370Z,63.39
2023-04-19T07:59:09.062Z,60.80
2023-04-19T08:01:37.042Z,59.93
2023-04-19T08:04:05.222Z,60.32
2023-04-19T08:06:33.108Z,60.83
2023-04-19T08:08:59.718Z,62.59
2023-04-19T08:11:26.337Z,59.17
2023-04-19T08:14:04.553Z,59.25
2023-04-19T08:19:05.867Z,61.17
2023-04-19T08:21:40.660Z,61.58
2023-04-19T08:24:08.623Z,62.80
2023-04-19T08:26:35.454Z,61.40
2023-04-19T08:29:02.101Z,57.75
2023-04-19T08:31:28.798Z,60.53
2023-04-19T08:33:55.479Z,62.10
2023-04-19T08:36:35.442Z,58.39
2023-04-19T08:39:29.077Z,60.29
2023-04-19T08:42:05.436Z,61.45
2023-04-19T08:44:53.781Z,59.42
2023-04-19T08:47:31.182Z,61.81
2023-04-19T08:50:13.944Z,58.77
2023-04-19T08:52:55.968Z,59.24
2023-04-19T08:55:27.738Z,58.15
2023-04-19T08:57:54.424Z,60.97
2023-04-19T09:00:21.561Z,58.84
2023-04-19T09:02:50.421Z,59.92
2023-04-19T09:05:18.677Z,57.19
2023-04-19T09:07:46.565Z,57.23
2023-04-19T09:10:15.826Z,58.74
2023-04-19T09:12:42.709Z,56.60
2023-04-19T09:15:10.237Z,57.45
2023-04-19T09:17:38.086Z,58.28
2023-04-19T09:20:06.217Z,60.08
2023-04-19T09:22:34.004Z,56.37
2023-04-19T09:27:32.935Z,57.78
2023-04-19T09:30:01.154Z,56.28
2023-04-19T09:32:29.469Z,58.15
2023-04-19T09:34:58.093Z,57.49
2023-04-19T09:39:56.151Z,51.73
2023-04-19T09:42:42.406Z,49.87
2023-04-19T09:45:28.304Z,50.03
2023-04-19T09:48:05.683Z,50.65
2023-04-19T09:50:34.222Z,48.97
2023-04-19T09:53:10.888Z,51.51
2023-04-19T09:55:48.883Z,50.09
2023-04-19T09:58:29.388Z,52.00
2023-04-19T10:01:13.505Z,49.72
2023-04-19T10:03:43.301Z,45.92
2023-04-19T10:06:14.630Z,46.65
2023-04-19T10:08:55.300Z,43.64
2023-04-19T10:11:22.811Z,40.21
2023-04-19T10:13:53.772Z,38.17
2023-04-19T10:16:20.923Z,38.81
2023-04-19T10:18:50.636Z,43.99
2023-04-19T10:21:19.258Z,42.73
2023-04-19T10:23:47.599Z,45.13
2023-04-19T10:26:14.272Z,48.64
2023-04-19T10:28:42.346Z,46.55
2023-04-19T10:31:13.033Z,48.23
2023-04-19T10:33:40.448Z,48.02
2023-04-19T10:36:14.144Z,46.58
2023-04-19T10:38:52.280Z,44.41
2023-04-19T10:41:19.458Z,43.61
2023-04-19T10:43:47.421Z,40.54
2023-04-19T10:46:17.320Z,40.81
2023-04-19T10:48:54.586Z,44.73
2023-04-19T10:51:23.666Z,45.98
2023-04-19T10:53:59.805Z,47.80
2023-04-19T10:56:41.085Z,45.58
2023-04-19T10:59:11.631Z,46.53
2023-04-19T11:01:39.757Z,45.35
2023-04-19T11:04:07.989Z,45.48
2023-04-19T11:06:35.986Z,44.19
2023-04-19T11:09:05.610Z,40.99
2023-04-19T11:11:36.209Z,37.94
2023-04-19T11:14:08.073Z,35.45
2023-04-19T11:16:45.559Z,38.97
2023-04-19T11:19:19.704Z,41.79
2023-04-19T11:21:46.928Z,43.60
2023-04-19T11:26:43.999Z,46.35
2023-04-19T11:29:10.888Z,48.01
2023-04-19T11:31:38.053Z,47.95
2023-04-19T11:34:04.853Z,50.66
2023-04-19T11:36:32.336Z,48.50
2023-04-19T11:38:58.874Z,51.04
2023-04-19T11:41:25.495Z,49.93
2023-04-19T11:43:52.090Z,48.30
2023-04-19T11:46:18.786Z,51.25
2023-04-19T11:48:53.290Z,50.46
2023-04-19T11:51:20.598Z,50.78
2023-04-19T11:53:47.397Z,48.34
2023-04-19T11:56:15.432Z,49.55
2023-04-19T11:58:48.247Z,50.76
2023-04-19T12:01:25.754Z,50.97
2023-04-19T12:03:55.591Z,50.49
2023-04-19T12:06:28.189Z,50.92
2023-04-19T12:08:56.227Z,49.12
2023-04-19T12:11:24.881Z,49.55
2023-04-19T12:14:11.308Z,49.91
2023-04-19T12:16:38.680Z,50.12
2023-04-19T12:19:14.067Z,51.90
2023-04-19T12:21:41.436Z,49.74
2023-04-19T12:24:08.462Z,49.17
2023-04-19T12:26:35.569Z,52.02
2023-04-19T12:29:03.704Z,52.82
2023-04-19T12:31:33.509Z,47.13
2023-04-19T12:34:00.148Z,48.97
2023-04-19T12:36:28.120Z,48.38
2023-04-19T12:38:54.688Z,47.59
2023-04-19T12:41:21.353Z,43.82
2023-04-19T12:43:48.083Z,48.28
2023-04-19T12:46:14.708Z,47.51
2023-04-19T12:48:41.369Z,48.90
2023-04-19T12:51:08.999Z,50.66
2023-04-19T12:53:35.694Z,49.13
2023-04-19T12:56:02.274Z,48.88
2023-04-19T12:58:28.856Z,48.96
2023-04-19T13:00:55.512Z,49.13
2023-04-19T13:03:23.246Z,48.87
2023-04-19T13:05:49.937Z,48.60
2023-04-19T13:08:17.024Z,50.13
2023-04-19T13:10:43.709Z,46.99
2023-04-19T13:13:10.366Z,46.95
2023-04-19T13:15:36.974Z,41.51
2023-04-19T13:18:03.775Z,40.46
2023-04-19T13:20:30.503Z,36.25
2023-04-19T13:22:57.108Z,35.80
2023-04-19T13:25:23.657Z,40.57
2023-04-19T13:27:51.497Z,43.37
2023-04-19T13:30:18.118Z,45.02
2023-04-19T13:32:44.821Z,46.98
2023-04-19T13:35:11.515Z,51.70
2023-04-19T13:37:40.240Z,54.66
2023-04-19T13:40:18.146Z,53.73
2023-04-19T13:42:46.260Z,54.84
2023-04-19T13:45:12.957Z,56.69
2023-04-19T13:47:39.578Z,55.93
2023-04-19T13:50:07.661Z,54.56
2023-04-19T13:52:34.283Z,53.52
2023-04-19T13:55:01.058Z,55.22
2023-04-19T13:57:28.640Z,54.36
2023-04-19T13:59:55.234Z,54.33
2023-04-19T14:02:21.929Z,53.54
2023-04-19T14:04:48.626Z,57.20
2023-04-19T14:07:15.219Z,62.08
2023-04-19T14:09:42.949Z,64.05
2023-04-19T14:12:09.927Z,66.30
2023-04-19T14:14:36.508Z,67.29
2023-04-19T14:17:03.264Z,66.74
2023-04-19T14:19:29.866Z,67.99
2023-04-19T14:21:56.625Z,68.73
2023-04-19T14:24:23.196Z,71.52
2023-04-19T14:26:59.916Z,74.26
2023-04-19T14:29:33.890Z,74.91
2023-04-19T14:32:16.648Z,75.61
2023-04-19T14:34:48.202Z,74.79
2023-04-19T14:37:14.878Z,74.55
2023-04-19T14:39:41.529Z,73.81
2023-04-19T14:42:08.131Z,74.19
2023-04-19T14:44:34.644Z,74.34
2023-04-19T14:47:01.315Z,74.17
2023-04-19T14:49:27.960Z,74.14
2023-04-19T14:51:54.529Z,71.76
2023-04-19T14:54:21.157Z,72.53
2023-04-19T14:56:47.791Z,72.07
2023-04-19T14:59:14.501Z,73.17
2023-04-19T15:01:41.414Z,73.29
2023-04-19T15:04:08.942Z,72.89
2023-04-19T15:06:35.685Z,75.06
2023-04-19T15:09:02.264Z,75.00
2023-04-19T15:11:28.898Z,76.45
2023-04-19T15:13:56.058Z,77.13
2023-04-19T15:16:22.740Z,76.18
2023-04-19T15:18:49.520Z,76.82
2023-04-19T15:21:19.403Z,77.43
2023-04-19T15:23:46.599Z,76.12
2023-04-19T15:26:13.336Z,76.66
2023-04-19T15:28:39.982Z,76.99
2023-04-19T15:31:08.645Z,75.61
2023-04-19T15:33:36.546Z,75.42
2023-04-19T15:36:04.203Z,75.94
2023-04-19T15:38:31.667Z,75.83
2023-04-19T15:40:59.606Z,75.93
2023-04-19T15:43:26.256Z,76.28
2023-04-19T15:45:53.091Z,75.42
2023-04-19T15:48:23.169Z,76.55
2023-04-19T15:50:50.053Z,75.16
2023-04-19T15:53:16.928Z,75.79
2023-04-19T15:55:44.161Z,76.81
2023-04-19T15:58:10.744Z,76.34
2023-04-19T16:00:37.392Z,75.65
2023-04-19T16:03:04.578Z,73.54
2023-04-19T16:05:31.730Z,74.18
2023-04-19T16:08:06.322Z,75.07
2023-04-19T16:10:33.412Z,75.60
2023-04-19T16:13:01.081Z,75.56
2023-04-19T16:15:28.601Z,75.53
2023-04-19T16:17:55.464Z,76.84
2023-04-19T16:20:22.513Z,76.69
2023-04-19T16:22:49.135Z,75.92
2023-04-19T16:25:17.189Z,74.57
2023-04-19T16:27:45.991Z,74.70
2023-04-19T16:30:14.406Z,74.72
2023-04-19T16:32:41.799Z,76.66
2023-04-19T16:35:09.044Z,76.45
2023-04-19T16:37:36.138Z,76.04
2023-04-19T16:40:10.146Z,76.82
2023-04-19T16:42:38.210Z,76.56
2023-04-19T16:45:06.219Z,77.11
2023-04-19T16:47:33.425Z,75.73
2023-04-19T16:50:01.205Z,75.92
2023-04-19T16:52:29.760Z,77.98
2023-04-19T16:54:56.512Z,77.58
2023-04-19T16:57:23.905Z,79.00
2023-04-19T16:59:50.810Z,79.18
2023-04-19T17:02:18.226Z,80.20
2023-04-19T17:04:45.302Z,80.18
2023-04-19T17:07:12.420Z,80.06
2023-04-19T17:09:38.999Z,81.16
2023-04-19T17:12:06.414Z,82.43
2023-04-19T17:14:36.414Z,82.68
2023-04-19T17:17:03.051Z,82.85
2023-04-19T17:19:29.698Z,82.34
2023-04-19T17:21:56.472Z,83.20
2023-04-19T17:24:23.075Z,82.37
2023-04-19T17:26:50.157Z,82.66
2023-04-19T17:29:17.057Z,83.50
2023-04-19T17:31:44.014Z,83.73
2023-04-19T17:34:10.998Z,84.16
2023-04-19T17:36:37.537Z,83.89
2023-04-19T17:39:06.637Z,83.65
2023-04-19T17:41:33.818Z,83.69
2023-04-19T17:44:00.448Z,82.63
2023-04-19T17:46:27.119Z,83.49
2023-04-19T17:48:55.343Z,83.78
2023-04-19T17:51:21.944Z,84.13
2023-04-19T17:53:48.518Z,82.74
2023-04-19T17:56:15.499Z,83.04
2023-04-19T17:58:42.264Z,83.28
2023-04-19T18:01:10.366Z,83.63
2023-04-19T18:03:37.392Z,82.93
2023-04-19T18:06:04.276Z,83.74
2023-04-19T18:08:31.015Z,82.71
2023-04-19T18:10:57.589Z,82.99
2023-04-19T18:13:24.218Z,82.61
2023-04-19T18:15:50.926Z,82.69
2023-04-19T18:18:17.572Z,82.39
2023-04-19T18:20:44.243Z,82.35
2023-04-19T18:23:11.139Z,82.78
2023-04-19T18:25:37.809Z,83.44
2023-04-19T18:28:04.529Z,83.14
2023-04-19T18:30:31.174Z,83.36
2023-04-19T18:32:59.716Z,83.50
2023-04-19T18:35:26.412Z,83.28
2023-04-19T18:37:52.952Z,83.91
2023-04-19T18:40:19.699Z,83.76
2023-04-19T18:42:46.630Z,83.35
2023-04-19T18:45:13.377Z,83.71
2023-04-19T18:47:40.029Z,83.51
2023-04-19T18:50:08.469Z,83.67
2023-04-19T18:52:36.665Z,84.11
2023-04-19T18:55:05.134Z,83.33
2023-04-19T18:57:35.112Z,84.09
2023-04-19T19:00:05.245Z,83.78
2023-04-19T19:02:34.025Z,84.19
2023-04-19T19:05:02.387Z,84.21
2023-04-19T19:10:03.579Z,84.84
2023-04-19T19:12:37.935Z,85.66
2023-04-19T19:15:05.064Z,85.87
2023-04-19T19:17:31.910Z,85.76
2023-04-19T19:19:58.570Z,85.85
2023-04-19T19:22:28.704Z,85.91
2023-04-19T19:24:56.239Z,86.01
2023-04-19T19:27:22.872Z,85.76
2023-04-19T19:29:49.519Z,85.58
2023-04-19T19:32:16.230Z,86.01
2023-04-19T19:34:53.774Z,86.33
2023-04-19T19:37:21.905Z,86.78
2023-04-19T19:39:49.134Z,87.05
2023-04-19T19:42:17.087Z,86.67
2023-04-19T19:44:43.882Z,86.48
2023-04-19T19:47:11.343Z,86.40
2023-04-19T19:52:08.215Z,85.85
2023-04-19T19:54:34.976Z,85.76
2023-04-19T19:59:34.913Z,87.42
2023-04-19T20:02:03.388Z,87.14
2023-04-19T20:04:38.638Z,86.84
2023-04-19T20:09:35.724Z,87.65
2023-04-19T20:12:02.689Z,86.84
2023-04-19T20:14:29.280Z,87.20
2023-04-19T20:16:56.375Z,87.28
2023-04-19T20:19:24.444Z,86.99
2023-04-19T20:21:51.126Z,86.78
2023-04-19T20:24:17.800Z,87.52
2023-04-19T20:26:44.430Z,87.49
2023-04-19T20:29:11.019Z,87.79
2023-04-19T20:31:37.653Z,87.58
2023-04-19T20:34:04.325Z,87.78
2023-04-19T20:36:31.768Z,87.57
2023-04-19T20:38:58.866Z,87.56
2023-04-19T20:41:25.530Z,87.27
2023-04-19T20:43:52.068Z,87.42
2023-04-19T20:46:18.854Z,88.28
2023-04-19T20:48:45.530Z,87.84
2023-04-19T20:51:12.748Z,87.38
2023-04-19T20:53:39.352Z,87.38
2023-04-19T20:56:06.081Z,87.62
2023-04-19T20:58:33.273Z,87.78
2023-04-19T21:00:59.936Z,88.16
2023-04-19T21:03:26.754Z,88.66
2023-04-19T21:05:53.408Z,88.80
2023-04-19T21:08:20.099Z,88.97
2023-04-19T21:10:46.760Z,88.72
2023-04-19T21:13:13.338Z,88.38
2023-04-19T21:15:39.943Z,88.83
2023-04-19T21:18:06.696Z,88.73
2023-04-19T21:20:33.943Z,88.90
2023-04-19T21:23:01.741Z,88.72
2023-04-19T21:25:29.103Z,88.91
2023-04-19T21:27:55.825Z,89.12
2023-04-19T21:30:23.662Z,88.65
2023-04-19T21:32:50.309Z,89.01
2023-04-19T21:35:16.971Z,88.42
2023-04-19T21:37:43.569Z,89.10
2023-04-19T21:40:10.740Z,89.25
2023-04-19T21:42:37.336Z,89.03
2023-04-19T21:45:04.346Z,88.14
2023-04-19T21:47:32.226Z,88.14
2023-04-19T21:49:58.876Z,88.27
2023-04-19T21:52:25.482Z,88.26
2023-04-19T21:54:52.050Z,88.07
2023-04-19T21:57:21.998Z,88.41
2023-04-19T21:59:48.794Z,88.79
2023-04-19T22:02:15.443Z,88.55
2023-04-19T22:04:42.110Z,88.97
2023-04-19T22:07:11.634Z,89.23
2023-04-19T22:09:39.073Z,89.09
2023-04-19T22:12:06.204Z,89.14
2023-04-19T22:14:32.820Z,89.02
2023-04-19T22:17:02.601Z,88.87
2023-04-19T22:19:29.720Z,88.95
2023-04-19T22:21:56.340Z,89.36
2023-04-19T22:24:23.264Z,89.18
2023-04-19T22:26:50.952Z,89.41
2023-04-19T22:29:18.015Z,89.64
2023-04-19T22:31:44.965Z,89.32
2023-04-19T22:34:11.565Z,89.22
2023-04-19T22:36:38.171Z,89.08
2023-04-19T22:39:05.030Z,88.55
2023-04-19T22:41:33.060Z,88.42
2023-04-19T22:44:00.199Z,88.49
2023-04-19T22:46:27.278Z,88.11
2023-04-19T22:48:55.973Z,88.67
2023-04-19T22:51:24.165Z,88.84
2023-04-19T22:53:50.792Z,88.71
2023-04-19T22:56:17.880Z,88.83
2023-04-19T22:58:44.608Z,88.47
2023-04-19T23:01:11.320Z,88.41
2023-04-19T23:03:37.904Z,87.22
2023-04-19T23:06:04.684Z,86.80
2023-04-19T23:08:33.351Z,87.07
2023-04-19T23:11:00.376Z,87.52
2023-04-19T23:13:26.986Z,87.94
2023-04-19T23:15:54.484Z,86.99
2023-04-19T23:18:21.259Z,87.42
2023-04-19T23:20:47.842Z,87.37
2023-04-19T23:23:14.459Z,87.53
2023-04-19T23:25:41.076Z,88.28
2023-04-19T23:28:07.652Z,88.15
2023-04-19T23:30:34.445Z,87.60
2023-04-19T23:33:01.161Z,87.30
2023-04-19T23:35:27.774Z,87.16
2023-04-19T23:37:54.642Z,87.44
2023-04-19T23:40:21.507Z,87.19
2023-04-19T23:42:48.089Z,87.93
2023-04-19T23:45:14.679Z,87.62
2023-04-19T23:47:41.427Z,87.66
2023-04-19T23:50:08.589Z,87.47
2023-04-19T23:52:35.199Z,88.00
2023-04-19T23:55:01.997Z,88.11
2023-04-19T23:57:28.789Z,88.05
2023-04-19T23:59:55.514Z,87.78
